Tesouro, Brazil
Current Conditions -  °F | °C
As of 11:00 PM on Tuesday 21 Oct 2014 (Local Time) from SBCY Reporting Station
Clear Clear  
Wind Chill: 84°   Ceiling: Unl
Heat Index: 88°   Visibility: 6mi
Dew Point: 70°   Wind: 3mph
Humidity: 62%   Direction: 220°SW
Pressure: 29.91"   Gusts: NA
Location:  16.08°S, 53.55°W
Report Text: SBCY 220200Z 22003KT CAVOK 29/21 Q1013
Loading
Personal Weather Stations






























Interactive Weather Map
Tropical Storm Tracking
New forecast layout! Learn more

10-Day Weather Forecast

Advertisements
Track Severe Weather on mobile